Time;durP1;ratioP1;P1;durP2;ratioP2;P2;SDS_P1;SDS_P2;PMS_P1;PMS_P2;Temp;Humidity;BMP_temperature;BMP_pressure;BME280_temperature;BME280_humidity;BME280_pressure;Samples;Min_cycle;Max_cycle;Signal;HPM_P1;HPM_P2
2022/09/12 00:00:09;;;;;;;;;;;19.70;99.90;;;;;;5073508;28;20323;-76
2022/09/12 00:02:35;;;;;;;;;;;19.70;99.90;;;;;;5073214;28;19908;-76
2022/09/12 00:05:01;;;;;;;;;;;19.60;99.90;;;;;;5073408;28;19920;-76
2022/09/12 00:07:26;;;;;;;;;;;19.50;99.90;;;;;;5073727;28;19995;-78
2022/09/12 00:09:52;;;;;;;;;;;19.40;99.90;;;;;;5073482;28;19962;-75
2022/09/12 00:12:18;;;;;;;;;;;19.40;99.90;;;;;;5073421;28;19958;-77
2022/09/12 00:14:43;;;;;;;;;;;19.40;99.90;;;;;;5073121;28;19913;-76
2022/09/12 00:17:09;;;;;;;;;;;19.30;99.90;;;;;;5073220;28;19952;-76
2022/09/12 00:19:34;;;;;;;;;;;19.20;99.90;;;;;;5073476;28;19908;-77
2022/09/12 00:22:01;;;;;;;;;;;19.20;99.90;;;;;;5073182;28;19912;-76
2022/09/12 00:24:26;;;;;;;;;;;19.50;99.90;;;;;;5071817;28;20341;-77
2022/09/12 00:26:52;;;;;;;;;;;19.60;99.90;;;;;;5073146;28;19951;-76
2022/09/12 00:29:18;;;;;;;;;;;19.60;99.90;;;;;;5073152;28;19995;-76
2022/09/12 00:31:44;;;;;;;;;;;19.60;99.90;;;;;;5073251;28;19977;-76
2022/09/12 00:34:10;;;;;;;;;;;19.60;99.90;;;;;;5071641;28;20383;-75
2022/09/12 00:36:37;;;;;;;;;;;19.60;99.90;;;;;;5072985;28;19951;-77
2022/09/12 00:39:03;;;;;;;;;;;19.70;99.90;;;;;;5072986;28;19962;-75
2022/09/12 00:41:30;;;;;;;;;;;19.60;99.90;;;;;;5072964;28;19979;-76
2022/09/12 00:44:19;;;;;;;;;;;19.50;99.90;;;;;;5076552;28;19909;-77
2022/09/12 00:46:45;;;;;;;;;;;19.50;99.90;;;;;;5056757;28;20433;-75
2022/09/12 00:49:17;;;;;;;;;;;19.30;99.90;;;;;;5076564;28;19912;-77
2022/09/12 00:51:45;;;;;;;;;;;19.10;99.90;;;;;;5076955;28;19985;-75
2022/09/12 00:54:12;;;;;;;;;;;19.00;99.90;;;;;;5076507;28;20368;-75
2022/09/12 00:56:39;;;;;;;;;;;19.30;99.90;;;;;;5076328;28;19909;-77
2022/09/12 00:59:09;;;;;;;;;;;19.40;99.90;;;;;;5076253;28;19948;-75
2022/09/12 01:01:35;;;;;;;;;;;19.60;99.90;;;;;;5076243;28;19958;-75
2022/09/12 01:04:00;;;;;;;;;;;19.70;99.90;;;;;;5076190;28;19909;-76
2022/09/12 01:06:28;;;;;;;;;;;19.70;99.90;;;;;;5076272;28;19909;-76
2022/09/12 01:08:55;;;;;;;;;;;19.60;99.90;;;;;;5076172;28;19915;-75
2022/09/12 01:11:21;;;;;;;;;;;19.50;99.90;;;;;;5076076;28;19908;-76
2022/09/12 01:13:48;;;;;;;;;;;19.30;99.90;;;;;;5075978;28;19916;-76
2022/09/12 01:16:14;;;;;;;;;;;19.20;99.90;;;;;;5075954;28;19915;-76
2022/09/12 01:18:40;;;;;;;;;;;19.10;99.90;;;;;;5075914;28;19994;-76
2022/09/12 01:21:15;;;;;;;;;;;19.00;99.90;;;;;;5075891;28;19931;-77
2022/09/12 01:23:56;;;;;;;;;;;19.00;99.90;;;;;;5075812;28;19908;-77
2022/09/12 01:26:24;;;;;;;;;;;19.00;99.90;;;;;;5075988;28;19908;-77
2022/09/12 01:29:08;;;;;;;;;;;18.90;99.90;;;;;;5075705;28;20396;-77
2022/09/12 01:31:41;;;;;;;;;;;19.10;99.90;;;;;;5075694;28;19908;-77
2022/09/12 01:34:19;;;;;;;;;;;19.20;99.90;;;;;;5075621;28;19956;-78
2022/09/12 01:37:05;;;;;;;;;;;19.10;99.90;;;;;;5074280;28;20292;-77
2022/09/12 01:39:31;;;;;;;;;;;19.20;99.90;;;;;;5075539;28;19909;-76
2022/09/12 01:41:56;;;;;;;;;;;19.10;99.90;;;;;;5075445;28;19954;-76
2022/09/12 01:44:26;;;;;;;;;;;19.10;99.90;;;;;;5075336;28;19947;-77
2022/09/12 01:46:54;;;;;;;;;;;19.10;99.90;;;;;;5075150;28;19959;-76
2022/09/12 01:49:22;;;;;;;;;;;19.00;99.90;;;;;;5075339;28;20292;-76
2022/09/12 01:51:47;;;;;;;;;;;19.20;99.90;;;;;;5075835;28;19935;-78
2022/09/12 01:54:17;;;;;;;;;;;19.30;99.90;;;;;;5074443;28;19978;-77
2022/09/12 01:56:44;;;;;;;;;;;19.30;99.90;;;;;;5073922;28;20265;-75
2022/09/12 01:59:18;;;;;;;;;;;19.10;99.90;;;;;;5075220;28;20380;-75
2022/09/12 02:01:53;;;;;;;;;;;19.10;99.90;;;;;;5075086;28;19999;-76
2022/09/12 02:04:19;;;;;;;;;;;19.10;99.90;;;;;;5075202;28;19915;-77
2022/09/12 02:06:48;;;;;;;;;;;19.10;99.90;;;;;;5075069;28;19908;-76
2022/09/12 02:09:19;;;;;;;;;;;19.00;99.90;;;;;;5074945;28;19915;-76
2022/09/12 02:11:46;;;;;;;;;;;19.00;99.90;;;;;;5075070;28;20399;-76
2022/09/12 02:14:14;;;;;;;;;;;18.90;99.90;;;;;;5074791;28;19956;-77
2022/09/12 02:16:41;;;;;;;;;;;18.70;99.90;;;;;;5074869;28;19962;-75
2022/09/12 02:19:13;;;;;;;;;;;18.70;99.90;;;;;;5074734;28;19908;-75
2022/09/12 02:21:43;;;;;;;;;;;18.70;99.90;;;;;;5074660;28;20007;-77
2022/09/12 02:24:09;;;;;;;;;;;18.50;99.90;;;;;;5074747;28;19909;-76
2022/09/12 02:26:37;;;;;;;;;;;18.50;99.90;;;;;;5074590;28;19908;-75
2022/09/12 02:29:03;;;;;;;;;;;18.60;99.90;;;;;;5074548;28;19909;-76
2022/09/12 02:31:40;;;;;;;;;;;18.70;99.90;;;;;;5074465;28;19915;-76
2022/09/12 02:34:09;;;;;;;;;;;18.70;99.90;;;;;;5074366;28;19912;-75
2022/09/12 02:36:46;;;;;;;;;;;18.70;99.90;;;;;;5073060;28;20305;-76
2022/09/12 02:39:12;;;;;;;;;;;18.70;99.90;;;;;;5072775;28;19908;-76
2022/09/12 02:41:37;;;;;;;;;;;18.80;99.90;;;;;;5074307;28;19915;-77
2022/09/12 02:44:03;;;;;;;;;;;18.80;99.90;;;;;;5074220;28;20266;-77
2022/09/12 02:46:35;;;;;;;;;;;18.70;99.90;;;;;;5074121;28;19920;-74
2022/09/12 02:49:01;;;;;;;;;;;18.70;99.90;;;;;;5074119;28;19909;-74
2022/09/12 02:51:27;;;;;;;;;;;18.70;99.90;;;;;;5074356;28;19915;-76
2022/09/12 02:53:52;;;;;;;;;;;18.80;99.90;;;;;;5074859;28;19912;-76
2022/09/12 02:56:22;;;;;;;;;;;18.70;99.90;;;;;;5074166;28;19915;-76
2022/09/12 02:58:48;;;;;;;;;;;18.80;99.90;;;;;;5074090;28;19908;-76
2022/09/12 03:01:23;;;;;;;;;;;18.70;99.90;;;;;;5073990;28;19908;-77
2022/09/12 03:04:07;;;;;;;;;;;18.70;99.90;;;;;;5074173;28;19916;-77
2022/09/12 03:06:33;;;;;;;;;;;18.70;99.90;;;;;;5073887;28;20368;-75
2022/09/12 03:09:07;;;;;;;;;;;18.80;99.90;;;;;;5072565;28;19916;-76
2022/09/12 03:11:48;;;;;;;;;;;18.80;99.90;;;;;;5074113;28;19930;-77
2022/09/12 03:14:14;;;;;;;;;;;18.70;99.90;;;;;;5073942;28;19912;-77
2022/09/12 03:16:52;;;;;;;;;;;18.60;99.90;;;;;;5073799;28;20281;-77
2022/09/12 03:19:28;;;;;;;;;;;18.50;99.90;;;;;;5073846;28;19908;-77
2022/09/12 03:21:56;;;;;;;;;;;18.40;99.90;;;;;;5073721;28;19908;-77
2022/09/12 03:24:22;;;;;;;;;;;18.30;99.90;;;;;;5073724;28;19909;-75
2022/09/12 03:27:07;;;;;;;;;;;18.30;99.90;;;;;;5073673;28;19908;-76
2022/09/12 03:29:34;;;;;;;;;;;18.40;99.90;;;;;;5071818;28;20285;-77
2022/09/12 03:31:59;;;;;;;;;;;18.40;99.90;;;;;;5072377;28;20003;-75
2022/09/12 03:34:26;;;;;;;;;;;18.40;99.90;;;;;;5072283;28;19995;-77
2022/09/12 03:36:54;;;;;;;;;;;18.50;99.90;;;;;;5073647;28;19909;-76
2022/09/12 03:39:20;;;;;;;;;;;18.50;99.90;;;;;;5073574;28;19909;-77
2022/09/12 03:41:45;;;;;;;;;;;18.60;99.90;;;;;;5073573;28;19915;-75
2022/09/12 03:44:11;;;;;;;;;;;18.70;99.90;;;;;;5073511;28;19909;-77
2022/09/12 03:46:37;;;;;;;;;;;18.80;99.90;;;;;;5073494;28;19924;-76
2022/09/12 03:49:02;;;;;;;;;;;18.90;99.90;;;;;;5072156;28;20329;-76
2022/09/12 03:51:28;;;;;;;;;;;18.80;99.90;;;;;;5073482;28;19909;-77
2022/09/12 03:53:53;;;;;;;;;;;18.80;99.90;;;;;;5073875;28;19912;-77
2022/09/12 03:56:19;;;;;;;;;;;18.70;99.90;;;;;;5073534;28;19912;-76
2022/09/12 03:58:45;;;;;;;;;;;18.70;99.90;;;;;;5073572;28;19990;-76
2022/09/12 04:01:15;;;;;;;;;;;18.70;99.90;;;;;;5073378;28;19908;-75
2022/09/12 04:03:44;;;;;;;;;;;18.80;99.90;;;;;;5073555;28;19920;-76
2022/09/12 04:06:10;;;;;;;;;;;18.70;99.90;;;;;;5073305;28;19912;-76
2022/09/12 04:08:36;;;;;;;;;;;18.60;99.90;;;;;;5073281;28;19909;-76
2022/09/12 04:11:06;;;;;;;;;;;18.60;99.90;;;;;;5073251;28;20006;-76
2022/09/12 04:13:32;;;;;;;;;;;18.40;99.90;;;;;;5073167;28;19909;-77
2022/09/12 04:15:58;;;;;;;;;;;18.20;99.90;;;;;;5073216;28;20003;-76
2022/09/12 04:18:24;;;;;;;;;;;18.30;99.90;;;;;;5076243;28;19932;-76
2022/09/12 04:20:49;;;;;;;;;;;18.30;99.90;;;;;;5077035;28;20381;-77
2022/09/12 04:23:15;;;;;;;;;;;18.30;99.90;;;;;;5075652;28;19991;-77
2022/09/12 04:25:41;;;;;;;;;;;18.20;99.90;;;;;;5076899;28;19975;-76
2022/09/12 04:28:06;;;;;;;;;;;18.00;99.90;;;;;;5076834;28;19908;-76
2022/09/12 04:30:33;;;;;;;;;;;18.20;99.90;;;;;;5077060;28;20292;-75
2022/09/12 04:32:58;;;;;;;;;;;18.30;99.90;;;;;;5076795;28;19991;-76
2022/09/12 04:35:24;;;;;;;;;;;18.40;99.90;;;;;;5076650;28;19966;-76
2022/09/12 04:37:50;;;;;;;;;;;18.20;99.90;;;;;;5076647;28;19948;-77
2022/09/12 04:40:15;;;;;;;;;;;18.10;99.90;;;;;;5077091;28;19908;-76
2022/09/12 04:42:41;;;;;;;;;;;18.10;99.90;;;;;;5076851;28;19913;-78
2022/09/12 04:45:06;;;;;;;;;;;18.10;99.90;;;;;;5076661;28;19930;-76
2022/09/12 04:47:32;;;;;;;;;;;18.10;99.90;;;;;;5076105;28;19970;-77
2022/09/12 04:49:58;;;;;;;;;;;18.10;99.90;;;;;;5076479;28;19914;-76
2022/09/12 04:52:23;;;;;;;;;;;18.10;99.90;;;;;;5076940;28;19963;-76
2022/09/12 04:54:49;;;;;;;;;;;18.10;99.90;;;;;;5076429;28;20434;-77
2022/09/12 04:57:15;;;;;;;;;;;18.00;99.90;;;;;;5076328;28;20327;-75
2022/09/12 04:59:40;;;;;;;;;;;17.90;99.90;;;;;;5074925;28;19908;-76
2022/09/12 05:02:06;;;;;;;;;;;17.90;99.90;;;;;;5076266;28;19908;-76
2022/09/12 05:04:31;;;;;;;;;;;17.90;99.90;;;;;;5076233;28;19908;-77
2022/09/12 05:06:57;;;;;;;;;;;17.70;99.90;;;;;;5076213;28;19909;-76
2022/09/12 05:09:23;;;;;;;;;;;17.60;99.90;;;;;;5076672;28;20049;-76
2022/09/12 05:11:48;;;;;;;;;;;17.50;99.90;;;;;;5076091;28;19908;-77
2022/09/12 05:14:14;;;;;;;;;;;17.50;99.90;;;;;;5076385;28;20372;-76
2022/09/12 05:16:40;;;;;;;;;;;17.70;99.90;;;;;;5075973;28;20315;-77
2022/09/12 05:19:05;;;;;;;;;;;17.70;99.90;;;;;;5076232;28;19992;-77
2022/09/12 05:21:31;;;;;;;;;;;17.60;99.90;;;;;;5075931;28;19909;-75
2022/09/12 05:23:58;;;;;;;;;;;17.50;99.90;;;;;;5075878;28;19915;-76
2022/09/12 05:26:24;;;;;;;;;;;17.50;99.90;;;;;;5075988;28;19931;-76
2022/09/12 05:28:51;;;;;;;;;;;17.40;99.90;;;;;;5075688;28;20373;-77
2022/09/12 05:31:23;;;;;;;;;;;17.50;99.90;;;;;;5075887;28;19908;-76
2022/09/12 05:33:50;;;;;;;;;;;17.60;99.90;;;;;;5075542;28;19917;-77
2022/09/12 05:36:17;;;;;;;;;;;17.50;99.90;;;;;;5075575;28;19938;-76
2022/09/12 05:38:43;;;;;;;;;;;17.60;99.90;;;;;;5075524;28;20351;-76
2022/09/12 05:41:11;;;;;;;;;;;17.60;99.90;;;;;;5075551;28;19909;-75
2022/09/12 05:43:37;;;;;;;;;;;17.70;99.90;;;;;;5075406;28;19908;-77
2022/09/12 05:46:03;;;;;;;;;;;17.70;99.90;;;;;;5075242;28;20422;-74
2022/09/12 05:48:29;;;;;;;;;;;17.60;99.90;;;;;;5075407;28;19909;-76
2022/09/12 05:50:58;;;;;;;;;;;17.50;99.90;;;;;;5075341;28;19918;-77
2022/09/12 05:53:27;;;;;;;;;;;17.40;99.90;;;;;;5075793;28;19909;-74
2022/09/12 05:56:06;;;;;;;;;;;17.30;99.90;;;;;;5075305;28;19920;-75
2022/09/12 05:58:32;;;;;;;;;;;17.30;99.90;;;;;;5075127;28;20007;-75
2022/09/12 06:01:06;;;;;;;;;;;17.30;99.90;;;;;;5075235;28;20327;-77
2022/09/12 06:03:33;;;;;;;;;;;17.30;99.90;;;;;;5075139;28;20008;-76
2022/09/12 06:06:02;;;;;;;;;;;17.30;99.90;;;;;;5075227;28;19934;-76
2022/09/12 06:08:28;;;;;;;;;;;17.40;99.90;;;;;;5074955;28;19915;-77
2022/09/12 06:11:04;;;;;;;;;;;17.60;99.90;;;;;;5075365;28;19987;-76
2022/09/12 06:13:31;;;;;;;;;;;18.10;99.90;;;;;;5074943;28;19917;-76
2022/09/12 06:16:01;;;;;;;;;;;18.70;99.90;;;;;;5074810;28;20003;-77
2022/09/12 06:18:27;;;;;;;;;;;19.10;99.90;;;;;;5075148;28;19909;-77
2022/09/12 06:20:52;;;;;;;;;;;19.50;99.90;;;;;;5075009;28;19916;-76
2022/09/12 06:23:18;;;;;;;;;;;19.90;99.90;;;;;;5074959;28;19957;-77
2022/09/12 06:25:48;;;;;;;;;;;20.10;99.90;;;;;;5074791;28;19908;-77
2022/09/12 06:28:14;;;;;;;;;;;20.50;99.90;;;;;;5074605;28;19915;-77
2022/09/12 06:30:40;;;;;;;;;;;20.90;99.90;;;;;;5074491;28;19912;-76
2022/09/12 06:33:06;;;;;;;;;;;21.40;99.90;;;;;;5074408;28;19908;-77
2022/09/12 06:35:34;;;;;;;;;;;22.00;99.90;;;;;;5074640;28;19961;-78
2022/09/12 06:38:00;;;;;;;;;;;22.20;99.90;;;;;;5074379;28;19908;-77
2022/09/12 06:40:27;;;;;;;;;;;22.50;99.90;;;;;;5073953;28;19935;-77
2022/09/12 06:42:52;;;;;;;;;;;22.90;99.90;;;;;;5074347;28;20464;-77
2022/09/12 06:45:19;;;;;;;;;;;23.00;99.90;;;;;;5074898;28;20021;-76
2022/09/12 06:47:44;;;;;;;;;;;23.40;99.70;;;;;;5074101;28;20339;-76
2022/09/12 06:50:10;;;;;;;;;;;23.80;98.70;;;;;;5074352;28;19916;-76
2022/09/12 06:52:36;;;;;;;;;;;24.20;97.10;;;;;;5074645;28;19948;-75
2022/09/12 06:55:01;;;;;;;;;;;24.20;96.30;;;;;;5074448;28;19913;-78
2022/09/12 06:57:29;;;;;;;;;;;24.40;95.80;;;;;;5074405;28;19915;-76
2022/09/12 06:59:55;;;;;;;;;;;24.90;95.40;;;;;;5072717;28;20338;-78
2022/09/12 07:02:20;;;;;;;;;;;25.10;94.10;;;;;;5074143;28;19912;-77
2022/09/12 07:04:46;;;;;;;;;;;24.20;94.90;;;;;;5073973;28;19914;-78
2022/09/12 07:07:12;;;;;;;;;;;23.10;97.60;;;;;;5073911;28;20042;-77
2022/09/12 07:09:37;;;;;;;;;;;22.60;99.80;;;;;;5073916;28;19916;-78
2022/09/12 07:12:03;;;;;;;;;;;22.10;99.90;;;;;;5074405;28;19908;-78
2022/09/12 07:14:29;;;;;;;;;;;22.20;99.90;;;;;;5073745;28;19912;-78
2022/09/12 07:16:54;;;;;;;;;;;22.20;99.90;;;;;;5074087;28;19912;-77
2022/09/12 07:19:20;;;;;;;;;;;22.00;99.90;;;;;;5073997;28;19948;-77
2022/09/12 07:21:45;;;;;;;;;;;21.90;99.90;;;;;;5073745;28;19908;-77
2022/09/12 07:24:11;;;;;;;;;;;21.90;99.90;;;;;;5073879;28;19909;-77
2022/09/12 07:26:38;;;;;;;;;;;21.80;99.90;;;;;;5073739;28;19954;-77
2022/09/12 07:29:04;;;;;;;;;;;21.80;99.90;;;;;;5073745;28;19996;-76
2022/09/12 07:31:29;;;;;;;;;;;21.70;99.90;;;;;;5073666;28;20360;-76
2022/09/12 07:33:55;;;;;;;;;;;21.80;99.90;;;;;;5073655;28;19966;-77
2022/09/12 07:36:24;;;;;;;;;;;22.20;99.90;;;;;;5073723;28;20368;-77
2022/09/12 07:38:54;;;;;;;;;;;23.00;99.90;;;;;;5073577;28;19916;-77
2022/09/12 07:41:20;;;;;;;;;;;24.20;98.40;;;;;;5073715;28;19916;-76
2022/09/12 07:43:47;;;;;;;;;;;25.50;95.10;;;;;;5073632;28;19908;-78
2022/09/12 07:46:13;;;;;;;;;;;26.80;92.60;;;;;;5073336;28;20007;-78
2022/09/12 07:48:39;;;;;;;;;;;27.80;90.10;;;;;;5073543;28;19908;-78
2022/09/12 07:51:06;;;;;;;;;;;28.70;86.70;;;;;;5073795;28;19916;-77
2022/09/12 07:53:33;;;;;;;;;;;29.30;83.30;;;;;;5077497;28;19909;-77
2022/09/12 07:55:58;;;;;;;;;;;30.00;79.30;;;;;;5077527;28;20340;-77
2022/09/12 07:58:24;;;;;;;;;;;30.30;77.60;;;;;;5078274;28;19952;-77
2022/09/12 08:00:50;;;;;;;;;;;30.30;77.00;;;;;;5077459;28;19913;-78
2022/09/12 08:03:16;;;;;;;;;;;31.60;74.70;;;;;;5077412;28;20372;-78
2022/09/12 08:05:41;;;;;;;;;;;32.10;71.50;;;;;;5077375;28;19908;-78
2022/09/12 08:08:08;;;;;;;;;;;32.10;68.70;;;;;;5077447;28;19916;-74
2022/09/12 08:10:34;;;;;;;;;;;32.20;68.70;;;;;;5077199;28;20372;-74
2022/09/12 08:13:00;;;;;;;;;;;32.50;66.50;;;;;;5077192;28;19999;-76
2022/09/12 08:15:25;;;;;;;;;;;32.90;66.30;;;;;;5077056;28;20364;-76
2022/09/12 08:17:51;;;;;;;;;;;32.90;64.30;;;;;;5077101;28;19908;-76
2022/09/12 08:20:16;;;;;;;;;;;33.10;64.10;;;;;;5077020;28;20296;-76
2022/09/12 08:22:42;;;;;;;;;;;33.10;63.00;;;;;;5077402;28;19961;-74
2022/09/12 08:25:09;;;;;;;;;;;32.60;62.50;;;;;;5077078;28;20278;-75
2022/09/12 08:27:34;;;;;;;;;;;32.80;64.40;;;;;;5076862;28;19915;-75
2022/09/12 08:30:00;;;;;;;;;;;33.40;62.50;;;;;;5076885;28;19912;-75
2022/09/12 08:32:25;;;;;;;;;;;34.30;62.20;;;;;;5076716;28;20368;-75
2022/09/12 08:34:51;;;;;;;;;;;35.20;60.10;;;;;;5077053;28;20093;-75
2022/09/12 08:37:16;;;;;;;;;;;34.80;59.70;;;;;;5077019;28;20006;-77
2022/09/12 08:39:42;;;;;;;;;;;35.30;59.60;;;;;;5076702;28;19908;-76
2022/09/12 08:42:09;;;;;;;;;;;35.20;57.90;;;;;;5076605;28;19968;-77
2022/09/12 08:44:47;;;;;;;;;;;35.40;57.20;;;;;;5076518;28;19931;-77
2022/09/12 08:47:12;;;;;;;;;;;35.40;56.70;;;;;;5074194;28;19920;-75
2022/09/12 08:49:43;;;;;;;;;;;35.70;56.80;;;;;;5075517;28;19955;-76
2022/09/12 08:52:14;;;;;;;;;;;36.00;55.70;;;;;;5075546;28;20435;-75
2022/09/12 08:54:41;;;;;;;;;;;35.60;56.30;;;;;;5075711;28;20341;-77
2022/09/12 08:57:08;;;;;;;;;;;36.00;55.00;;;;;;5075449;28;19962;-77
2022/09/12 08:59:38;;;;;;;;;;;35.80;55.40;;;;;;5075225;28;19916;-76
2022/09/12 09:02:12;;;;;;;;;;;36.30;55.30;;;;;;5075334;28;20015;-76
2022/09/12 09:04:51;;;;;;;;;;;36.80;54.80;;;;;;5074805;28;19908;-77
2022/09/12 09:07:17;;;;;;;;;;;37.30;54.10;;;;;;5075343;28;19909;-77
2022/09/12 09:09:45;;;;;;;;;;;36.00;53.10;;;;;;5075079;28;20403;-75
2022/09/12 09:12:22;;;;;;;;;;;35.80;54.10;;;;;;5075064;28;20007;-77
2022/09/12 09:14:47;;;;;;;;;;;36.20;54.00;;;;;;5074932;28;19913;-74
2022/09/12 09:17:30;;;;;;;;;;;36.50;54.70;;;;;;5075323;28;19915;-77
2022/09/12 09:20:01;;;;;;;;;;;37.80;52.20;;;;;;5075002;28;20368;-76
2022/09/12 09:22:29;;;;;;;;;;;39.00;51.20;;;;;;5075009;28;19999;-77
2022/09/12 09:24:58;;;;;;;;;;;39.90;50.00;;;;;;5074764;28;20038;-77
2022/09/12 09:27:28;;;;;;;;;;;40.40;49.40;;;;;;5075227;28;19909;-77
2022/09/12 09:29:54;;;;;;;;;;;41.70;48.40;;;;;;5074713;28;19909;-76
2022/09/12 09:32:32;;;;;;;;;;;42.70;47.70;;;;;;5074963;28;19912;-76
2022/09/12 09:34:58;;;;;;;;;;;43.20;45.00;;;;;;5074683;28;19920;-77
2022/09/12 09:37:23;;;;;;;;;;;42.80;44.60;;;;;;5074590;28;19912;-76
2022/09/12 09:40:05;;;;;;;;;;;42.70;44.80;;;;;;5074710;28;19958;-78
2022/09/12 09:42:39;;;;;;;;;;;43.70;44.50;;;;;;5074662;28;19951;-78
2022/09/12 09:45:18;;;;;;;;;;;44.70;44.00;;;;;;5074362;28;20411;-78
2022/09/12 09:47:45;;;;;;;;;;;45.10;42.60;;;;;;5007187;28;1911965;-76
2022/09/12 09:50:13;;;;;;;;;;;45.60;42.60;;;;;;5075390;28;19958;-77
2022/09/12 09:52:39;;;;;;;;;;;46.10;41.80;;;;;;5075381;28;20351;-77
2022/09/12 09:55:04;;;;;;;;;;;46.80;40.80;;;;;;5075841;28;19947;-79
2022/09/12 09:57:33;;;;;;;;;;;45.30;41.20;;;;;;5075236;28;20011;-78
2022/09/12 10:00:20;;;;;;;;;;;45.50;41.00;;;;;;5075142;28;19908;-78
2022/09/12 10:03:04;;;;;;;;;;;45.60;40.80;;;;;;5075224;28;19908;-77
2022/09/12 10:05:32;;;;;;;;;;;46.90;40.00;;;;;;5075396;28;20011;-78
2022/09/12 10:07:58;;;;;;;;;;;46.90;40.10;;;;;;5075114;28;19974;-78
2022/09/12 10:10:24;;;;;;;;;;;45.70;39.50;;;;;;5075001;28;20361;-78
2022/09/12 10:12:50;;;;;;;;;;;45.30;40.20;;;;;;5074908;28;19908;-77
2022/09/12 10:15:17;;;;;;;;;;;43.80;40.20;;;;;;5074035;28;19999;-77
2022/09/12 10:17:43;;;;;;;;;;;43.90;41.10;;;;;;5074990;28;19917;-78
2022/09/12 10:20:27;;;;;;;;;;;44.10;41.10;;;;;;5074739;28;19909;-78
2022/09/12 10:22:53;;;;;;;;;;;43.30;40.20;;;;;;5074685;28;19909;-76
2022/09/12 10:25:19;;;;;;;;;;;43.30;41.60;;;;;;5074625;28;19920;-78
2022/09/12 10:27:51;;;;;;;;;;;44.40;40.70;;;;;;5074747;28;19909;-78
2022/09/12 10:30:18;;;;;;;;;;;44.00;40.20;;;;;;5074697;28;19909;-77
2022/09/12 10:32:51;;;;;;;;;;;43.40;40.10;;;;;;5074537;28;19931;-77
2022/09/12 10:35:43;;;;;;;;;;;42.80;41.10;;;;;;5074666;28;19916;-79
2022/09/12 10:38:20;;;;;;;;;;;45.20;39.70;;;;;;5072201;28;19916;-78
2022/09/12 10:40:54;;;;;;;;;;;45.00;39.60;;;;;;5072782;28;19908;-76
2022/09/12 10:43:27;;;;;;;;;;;42.40;39.50;;;;;;5074716;28;19908;-78
2022/09/12 10:45:57;;;;;;;;;;;43.80;40.80;;;;;;5074062;28;19920;-77
2022/09/12 10:48:25;;;;;;;;;;;45.50;40.00;;;;;;5072724;28;19920;-78
2022/09/12 10:50:51;;;;;;;;;;;46.30;39.70;;;;;;5074170;28;19908;-78
2022/09/12 10:53:22;;;;;;;;;;;45.40;38.80;;;;;;5074686;28;19908;-77
2022/09/12 10:56:08;;;;;;;;;;;45.10;38.70;;;;;;5074103;28;19915;-79
2022/09/12 10:58:52;;;;;;;;;;;46.10;40.10;;;;;;5066554;28;19915;-79
2022/09/12 11:01:21;;;;;;;;;;;45.00;39.40;;;;;;5074333;28;19908;-77
2022/09/12 11:03:49;;;;;;;;;;;45.10;39.70;;;;;;5074062;28;19908;-77
2022/09/12 11:06:16;;;;;;;;;;;44.20;39.80;;;;;;5074061;28;19915;-78
2022/09/12 11:08:41;;;;;;;;;;;43.50;40.50;;;;;;5072614;28;20004;-77
2022/09/12 11:11:36;;;;;;;;;;;43.30;40.40;;;;;;5073927;28;20007;-77
2022/09/12 11:14:10;;;;;;;;;;;42.80;41.10;;;;;;5074105;28;19908;-78
2022/09/12 11:16:41;;;;;;;;;;;44.30;40.70;;;;;;5073890;28;19909;-79
2022/09/12 11:19:12;;;;;;;;;;;43.60;40.70;;;;;;5074028;28;19908;-79
2022/09/12 11:21:46;;;;;;;;;;;42.80;41.20;;;;;;5073752;28;20273;-76
2022/09/12 11:24:44;;;;;;;;;;;42.50;41.50;;;;;;5073835;28;19912;-78
2022/09/12 11:27:13;;;;;;;;;;;42.70;41.80;;;;;;5050520;28;19908;-78
2022/09/12 11:29:49;;;;;;;;;;;43.00;41.60;;;;;;5073915;28;19908;-78
2022/09/12 11:32:14;;;;;;;;;;;43.90;40.90;;;;;;5073656;28;19912;-78
2022/09/12 11:34:48;;;;;;;;;;;43.90;40.40;;;;;;5073777;28;20001;-75
2022/09/12 11:37:24;;;;;;;;;;;43.10;40.90;;;;;;5073673;28;19908;-77
2022/09/12 11:39:51;;;;;;;;;;;43.10;41.20;;;;;;5073762;28;19951;-76
2022/09/12 11:42:32;;;;;;;;;;;42.10;40.90;;;;;;5073797;28;19908;-77
2022/09/12 11:45:03;;;;;;;;;;;39.90;42.40;;;;;;5073371;28;20015;-77
2022/09/12 11:47:31;;;;;;;;;;;40.20;43.90;;;;;;5073109;28;19920;-77
2022/09/12 11:49:58;;;;;;;;;;;42.40;41.80;;;;;;5073474;28;19915;-75
2022/09/12 11:52:24;;;;;;;;;;;41.60;41.90;;;;;;5073666;28;19912;-77
2022/09/12 11:54:50;;;;;;;;;;;42.00;42.00;;;;;;5073991;28;20426;-77
2022/09/12 11:57:21;;;;;;;;;;;43.20;40.40;;;;;;5073588;28;19908;-77
2022/09/12 11:59:56;;;;;;;;;;;43.60;40.70;;;;;;5073378;28;19908;-77
2022/09/12 12:02:26;;;;;;;;;;;43.00;41.50;;;;;;5073527;28;19944;-78
2022/09/12 12:04:54;;;;;;;;;;;41.60;42.00;;;;;;5073808;28;19913;-76
2022/09/12 12:07:20;;;;;;;;;;;39.00;43.10;;;;;;5073292;28;19919;-76
2022/09/12 12:09:51;;;;;;;;;;;42.40;42.60;;;;;;5073524;28;19908;-77
2022/09/12 12:12:19;;;;;;;;;;;46.70;39.50;;;;;;5073273;28;19974;-77
2022/09/12 12:14:47;;;;;;;;;;;48.40;38.40;;;;;;5073318;28;19909;-78
2022/09/12 12:17:17;;;;;;;;;;;49.40;37.40;;;;;;5073462;28;20407;-79
2022/09/12 12:19:43;;;;;;;;;;;50.30;37.70;;;;;;5073195;28;20422;-78
2022/09/12 12:22:22;;;;;;;;;;;50.80;37.00;;;;;;5073202;28;19909;-77
2022/09/12 12:25:07;;;;;;;;;;;50.60;36.40;;;;;;5073123;28;19912;-78
2022/09/12 12:27:52;;;;;;;;;;;52.10;36.60;;;;;;5073361;28;19915;-77
2022/09/12 12:30:30;;;;;;;;;;;51.20;35.70;;;;;;5073111;28;19974;-78
2022/09/12 12:32:59;;;;;;;;;;;51.70;36.30;;;;;;5073088;28;19943;-77
2022/09/12 12:35:47;;;;;;;;;;;50.80;35.40;;;;;;5071733;28;20343;-77
2022/09/12 12:38:32;;;;;;;;;;;49.00;35.50;;;;;;5067281;28;19908;-79
2022/09/12 12:41:16;;;;;;;;;;;48.00;36.60;;;;;;5077019;28;20343;-78
2022/09/12 12:43:42;;;;;;;;;;;46.40;36.60;;;;;;5076670;28;19908;-76
2022/09/12 12:46:09;;;;;;;;;;;44.20;37.80;;;;;;5076336;28;19927;-78
2022/09/12 12:48:43;;;;;;;;;;;43.30;39.60;;;;;;5076718;28;19913;-76
2022/09/12 12:51:16;;;;;;;;;;;42.60;39.90;;;;;;5076672;28;19951;-78
2022/09/12 12:53:42;;;;;;;;;;;41.50;39.90;;;;;;5077107;28;19908;-77
2022/09/12 12:56:25;;;;;;;;;;;43.40;40.50;;;;;;5076423;28;20387;-77
2022/09/12 12:58:56;;;;;;;;;;;44.40;39.10;;;;;;5076804;28;19959;-75
2022/09/12 13:01:22;;;;;;;;;;;46.00;39.20;;;;;;5076506;28;19908;-76
2022/09/12 13:03:56;;;;;;;;;;;47.60;37.30;;;;;;5076388;28;20442;-78
2022/09/12 13:06:35;;;;;;;;;;;45.10;36.90;;;;;;5076372;28;20321;-77
2022/09/12 13:09:04;;;;;;;;;;;45.30;39.10;;;;;;5076419;28;19913;-77
2022/09/12 13:11:37;;;;;;;;;;;45.70;38.50;;;;;;5076130;28;19908;-78
2022/09/12 13:14:05;;;;;;;;;;;47.90;38.00;;;;;;5076203;28;19908;-77
2022/09/12 13:16:36;;;;;;;;;;;50.00;37.00;;;;;;5076089;28;19913;-79
2022/09/12 13:19:03;;;;;;;;;;;51.70;36.40;;;;;;5075859;28;20015;-79
2022/09/12 13:21:29;;;;;;;;;;;52.20;35.60;;;;;;5075948;28;19915;-78
2022/09/12 13:23:59;;;;;;;;;;;49.00;35.50;;;;;;5075817;28;20007;-77
2022/09/12 13:26:25;;;;;;;;;;;46.80;37.60;;;;;;5075823;28;19952;-78
2022/09/12 13:29:09;;;;;;;;;;;47.40;38.00;;;;;;5075944;28;20324;-78
2022/09/12 13:31:35;;;;;;;;;;;50.10;37.30;;;;;;5075864;28;20030;-79
2022/09/12 13:34:04;;;;;;;;;;;49.80;36.00;;;;;;5075741;28;19915;-77
2022/09/12 13:36:32;;;;;;;;;;;51.10;36.10;;;;;;5076104;28;19909;-78
2022/09/12 13:39:09;;;;;;;;;;;50.80;35.80;;;;;;5075675;28;19970;-79
2022/09/12 13:41:35;;;;;;;;;;;50.40;35.80;;;;;;5075533;28;20331;-79
2022/09/12 13:44:02;;;;;;;;;;;51.20;36.10;;;;;;5075580;28;19912;-78
2022/09/12 13:46:30;;;;;;;;;;;52.20;35.70;;;;;;5075415;28;19920;-79
2022/09/12 13:48:57;;;;;;;;;;;52.00;35.70;;;;;;5075027;28;20381;-78
2022/09/12 13:51:24;;;;;;;;;;;49.40;36.40;;;;;;5074650;28;19931;-77
2022/09/12 13:53:51;;;;;;;;;;;48.40;36.90;;;;;;5075854;28;20500;-79
2022/09/12 13:56:17;;;;;;;;;;;49.20;36.60;;;;;;5075634;28;19909;-78
2022/09/12 13:59:04;;;;;;;;;;;46.80;36.50;;;;;;5075242;28;19916;-78
2022/09/12 14:01:42;;;;;;;;;;;42.60;38.80;;;;;;5073160;28;20387;-76
2022/09/12 14:07:11;;;;;;;;;;;38.20;42.90;;;;;;5075115;28;19958;-75
2022/09/12 14:09:38;;;;;;;;;;;37.10;43.90;;;;;;5075008;28;20331;-77
2022/09/12 14:12:16;;;;;;;;;;;37.10;44.40;;;;;;5074989;28;19915;-77
2022/09/12 14:14:44;;;;;;;;;;;37.20;45.10;;;;;;5073423;28;19909;-76
2022/09/12 14:17:16;;;;;;;;;;;37.00;44.90;;;;;;5075081;28;19957;-76
2022/09/12 14:19:42;;;;;;;;;;;37.00;44.90;;;;;;5075000;28;19973;-77
2022/09/12 14:22:11;;;;;;;;;;;37.30;44.90;;;;;;5074833;28;19915;-75
2022/09/12 14:24:38;;;;;;;;;;;36.70;44.90;;;;;;5074693;28;19912;-76
2022/09/12 14:27:03;;;;;;;;;;;36.50;45.50;;;;;;5074616;28;20011;-74
2022/09/12 14:29:29;;;;;;;;;;;36.30;46.40;;;;;;5075081;28;19944;-76